Misenheimer, North Carolina
Current Conditions -  °F | °C
As of 11:55 AM on Tuesday 27 Jan 2015 (Local Time) from KVUJ Reporting Station
Clear Clear  
Wind Chill: 34°   Ceiling: Unl
Heat Index: 40°   Visibility: 10mi
Dew Point: 18°   Wind: 9mph
Humidity: 41%   Direction: 340°NNW
Pressure: 29.89"   Gusts: 20mph
Location:  35.48°N, 80.29°W
Report Text: KVUJ 271655Z AUTO 34008G17KT 10SM CLR 04/M08 A2989 RMK AO2 LTG DSNT E T00431080
Loading
Personal Weather Stations






























Interactive Weather Map New forecast layout! Learn more

10-Day Weather Forecast

Advertisements
Track Severe Weather on mobile